Ontario, New York
Current Conditions -  °F | °C
As of 5:00 PM on Tuesday 25 Nov 2014 (Local Time) from KROC Reporting Station
Light Rain Light Rain  
Wind Chill: 30°   Ceiling: 2500
Heat Index: 39°   Visibility: 10mi
Dew Point: 33°   Wind: 17mph
Humidity: 79%   Direction: 270°W
Pressure: 30.03"   Gusts: 28mph
Location:  43.22°N, 77.28°W
Report Text: KROC 252200Z 27015G24KT 10SM -RA SCT015 BKN025 OVC037 04/01 A3003 RMK AO2 RAB2158 P0000 T00390006
Loading
Personal Weather Stations






























Interactive Weather Map New forecast layout! Learn more

10-Day Weather Forecast

Advertisements
Track Severe Weather on mobile